Time;durP1;ratioP1;P1;durP2;ratioP2;P2;SDS_P1;SDS_P2;PMS_P1;PMS_P2;Temp;Humidity;BMP_temperature;BMP_pressure;BME280_temperature;BME280_humidity;BME280_pressure;Samples;Min_cycle;Max_cycle;Signal;HPM_P1;HPM_P2
2023/10/07 00:02:51;;;;;;;244.93;68.27;;;;;;;;;;4972895;28;20499;-47
2023/10/07 00:05:20;;;;;;;245.43;66.87;;;;;;;;;;4978757;28;20412;-47
2023/10/07 00:07:46;;;;;;;244.07;67.37;;;;;;;;;;4972587;28;20488;-48
2023/10/07 00:10:21;;;;;;;245.90;67.20;;;;;;;;;;4972332;28;20522;-47
2023/10/07 00:12:47;;;;;;;245.67;67.67;;;;;;;;;;4972712;28;20417;-47
2023/10/07 00:15:13;;;;;;;242.77;66.13;;;;;;;;;;4972406;28;20443;-47
2023/10/07 00:17:42;;;;;;;239.63;63.20;;;;;;;;;;4972744;28;20791;-48
2023/10/07 00:20:12;;;;;;;243.57;65.60;;;;;;;;;;4974152;28;20548;-48
2023/10/07 00:22:42;;;;;;;243.50;65.87;;;;;;;;;;4978701;28;20413;-47
2023/10/07 00:25:12;;;;;;;243.87;67.27;;;;;;;;;;4975987;28;20460;-47
2023/10/07 00:27:38;;;;;;;244.03;64.63;;;;;;;;;;4976270;28;20460;-47
2023/10/07 00:30:15;;;;;;;244.13;65.03;;;;;;;;;;4975921;28;20429;-48
2023/10/07 00:32:41;;;;;;;242.67;64.17;;;;;;;;;;4976064;28;20485;-48
2023/10/07 00:35:07;;;;;;;245.37;67.83;;;;;;;;;;4983474;28;20431;-48
2023/10/07 00:37:34;;;;;;;245.50;66.87;;;;;;;;;;4976292;28;20447;-47
2023/10/07 00:40:12;;;;;;;241.93;64.50;;;;;;;;;;4975641;28;20432;-48
2023/10/07 00:42:41;;;;;;;242.53;63.57;;;;;;;;;;4970565;28;20417;-48
2023/10/07 00:45:14;;;;;;;242.27;64.67;;;;;;;;;;4975659;28;20885;-47
2023/10/07 00:47:40;;;;;;;243.97;66.13;;;;;;;;;;4986037;28;20496;-47
2023/10/07 00:50:09;;;;;;;244.03;65.57;;;;;;;;;;4975339;28;20512;-48
2023/10/07 00:52:41;;;;;;;240.83;62.77;;;;;;;;;;4981034;28;20533;-48
2023/10/07 00:55:09;;;;;;;242.87;64.57;;;;;;;;;;4982597;28;20487;-48
2023/10/07 00:57:37;;;;;;;243.37;66.07;;;;;;;;;;4981773;28;20431;-48
2023/10/07 01:00:14;;;;;;;243.80;65.23;;;;;;;;;;4981047;28;20435;-48
2023/10/07 01:02:45;;;;;;;246.70;66.10;;;;;;;;;;4980010;28;20468;-48
2023/10/07 01:05:21;;;;;;;243.17;64.20;;;;;;;;;;4975040;28;20892;-48
2023/10/07 01:07:53;;;;;;;244.07;64.37;;;;;;;;;;4969898;28;20553;-47
2023/10/07 01:10:24;;;;;;;244.50;66.60;;;;;;;;;;4981109;28;20451;-48
2023/10/07 01:12:51;;;;;;;241.60;63.03;;;;;;;;;;4975816;28;20409;-48
2023/10/07 01:17:47;;;;;;;243.67;66.10;;;;;;;;;;4979009;28;20785;-47
2023/10/07 01:20:14;;;;;;;243.13;62.43;;;;;;;;;;4980647;28;20436;-47
2023/10/07 01:23:00;;;;;;;252.57;71.80;;;;;;;;;;4976187;28;20427;-47
2023/10/07 01:25:28;;;;;;;241.63;62.93;;;;;;;;;;4973415;28;20451;-47
2023/10/07 01:27:54;;;;;;;242.57;64.63;;;;;;;;;;4977002;28;20508;-48
2023/10/07 01:30:26;;;;;;;241.97;63.00;;;;;;;;;;4974917;28;20425;-48
2023/10/07 01:35:38;;;;;;;244.50;66.87;;;;;;;;;;4972726;28;20504;-47
2023/10/07 01:38:07;;;;;;;243.07;63.67;;;;;;;;;;4974650;28;20426;-48
2023/10/07 01:43:19;;;;;;;243.40;64.27;;;;;;;;;;4976632;28;20947;-47
2023/10/07 01:45:48;;;;;;;242.37;63.93;;;;;;;;;;4978336;28;20417;-47
2023/10/07 01:48:17;;;;;;;244.33;66.80;;;;;;;;;;4979610;28;20468;-48
2023/10/07 01:50:44;;;;;;;241.13;62.60;;;;;;;;;;4979781;28;20522;-46
2023/10/07 01:53:11;;;;;;;241.97;63.43;;;;;;;;;;4975853;28;20784;-49
2023/10/07 01:55:42;;;;;;;241.60;63.17;;;;;;;;;;4974400;28;20917;-46
2023/10/07 01:58:12;;;;;;;242.20;65.57;;;;;;;;;;4973011;28;20963;-47
2023/10/07 02:00:51;;;;;;;241.73;63.97;;;;;;;;;;4978008;28;20424;-46
2023/10/07 02:03:21;;;;;;;245.00;65.37;;;;;;;;;;4979522;28;20536;-48
2023/10/07 02:05:51;;;;;;;241.87;62.87;;;;;;;;;;4981415;28;20417;-48
2023/10/07 02:08:21;;;;;;;242.00;64.30;;;;;;;;;;4974335;28;20551;-47
2023/10/07 02:10:51;;;;;;;243.33;65.70;;;;;;;;;;4976109;28;20420;-47
2023/10/07 02:13:19;;;;;;;246.63;67.77;;;;;;;;;;4977399;28;20407;-46
2023/10/07 02:15:49;;;;;;;248.60;68.07;;;;;;;;;;4969654;28;20441;-46
2023/10/07 02:18:18;;;;;;;242.87;64.07;;;;;;;;;;4973236;28;20512;-47
2023/10/07 02:20:49;;;;;;;240.57;63.80;;;;;;;;;;4973973;28;20774;-46
2023/10/07 02:23:20;;;;;;;243.27;65.43;;;;;;;;;;4973902;28;20421;-47
2023/10/07 02:25:49;;;;;;;244.03;66.67;;;;;;;;;;4976131;28;20404;-47
2023/10/07 02:28:16;;;;;;;242.50;64.67;;;;;;;;;;4977246;28;21108;-46
2023/10/07 02:30:51;;;;;;;240.77;63.33;;;;;;;;;;4978945;28;20413;-47
2023/10/07 02:33:21;;;;;;;242.47;64.70;;;;;;;;;;4980669;28;20499;-47
2023/10/07 02:35:51;;;;;;;242.47;65.47;;;;;;;;;;4973840;28;20409;-46
2023/10/07 02:38:24;;;;;;;241.27;65.70;;;;;;;;;;4975389;28;20468;-47
2023/10/07 02:40:51;;;;;;;240.47;63.23;;;;;;;;;;4975296;28;20413;-46
2023/10/07 02:43:17;;;;;;;244.60;67.80;;;;;;;;;;4973763;28;20575;-46
2023/10/07 02:45:43;;;;;;;240.00;62.47;;;;;;;;;;4978237;28;20444;-47
2023/10/07 02:48:12;;;;;;;242.63;64.13;;;;;;;;;;4973257;28;20507;-46
2023/10/07 02:50:44;;;;;;;242.37;64.90;;;;;;;;;;4973713;28;20421;-47
2023/10/07 02:53:15;;;;;;;241.57;62.67;;;;;;;;;;4975076;28;20487;-47
2023/10/07 02:55:48;;;;;;;240.37;62.73;;;;;;;;;;4976759;28;20959;-47
2023/10/07 02:58:27;;;;;;;242.50;64.30;;;;;;;;;;4973326;28;20968;-47
2023/10/07 03:00:58;;;;;;;242.33;64.43;;;;;;;;;;4973350;28;20425;-46
2023/10/07 03:05:59;;;;;;;242.07;64.37;;;;;;;;;;4974611;28;20413;-46
2023/10/07 03:08:40;;;;;;;240.63;64.30;;;;;;;;;;4965951;28;20543;-46
2023/10/07 03:11:11;;;;;;;242.43;63.67;;;;;;;;;;4971351;28;20920;-46
2023/10/07 03:13:38;;;;;;;244.93;67.47;;;;;;;;;;4977901;28;20429;-46
2023/10/07 03:21:21;;;;;;;240.67;64.03;;;;;;;;;;4968685;28;20417;-46
2023/10/07 03:23:48;;;;;;;240.47;63.07;;;;;;;;;;4972765;28;20979;-46
2023/10/07 03:26:22;;;;;;;240.70;63.47;;;;;;;;;;4977890;28;20408;-46
2023/10/07 03:28:53;;;;;;;240.57;62.87;;;;;;;;;;4978641;28;20427;-46
2023/10/07 03:31:33;;;;;;;242.20;64.67;;;;;;;;;;4964992;28;20409;-47
2023/10/07 03:33:59;;;;;;;242.90;64.37;;;;;;;;;;4974240;28;20435;-46
2023/10/07 03:36:40;;;;;;;240.37;63.40;;;;;;;;;;4972974;28;20405;-46
2023/10/07 03:39:16;;;;;;;240.57;62.17;;;;;;;;;;4971352;28;20425;-48
2023/10/07 03:41:47;;;;;;;244.57;67.27;;;;;;;;;;4977769;28;20412;-47
2023/10/07 03:44:14;;;;;;;242.50;64.43;;;;;;;;;;4978819;28;20471;-47
2023/10/07 03:46:40;;;;;;;243.27;64.57;;;;;;;;;;4980702;28;20987;-48
2023/10/07 03:49:07;;;;;;;240.67;62.93;;;;;;;;;;4974114;28;20452;-47
2023/10/07 03:51:35;;;;;;;242.27;65.03;;;;;;;;;;4975799;28;20440;-47
2023/10/07 03:54:09;;;;;;;243.27;65.53;;;;;;;;;;4977279;28;20451;-46
2023/10/07 03:56:36;;;;;;;240.27;63.23;;;;;;;;;;4972733;28;20447;-48
2023/10/07 03:59:04;;;;;;;245.00;66.17;;;;;;;;;;4975514;28;20926;-47
2023/10/07 04:01:31;;;;;;;241.07;63.87;;;;;;;;;;4973587;28;20458;-47
2023/10/07 04:04:00;;;;;;;243.00;66.20;;;;;;;;;;4976126;28;20408;-47
2023/10/07 04:06:34;;;;;;;242.70;66.37;;;;;;;;;;4976470;28;20413;-47
2023/10/07 04:09:06;;;;;;;242.07;64.80;;;;;;;;;;4976224;28;20456;-47
2023/10/07 04:11:48;;;;;;;241.53;64.07;;;;;;;;;;4983593;28;20411;-46
2023/10/07 04:14:30;;;;;;;240.00;63.40;;;;;;;;;;4976114;28;20413;-46
2023/10/07 04:17:03;;;;;;;243.73;66.83;;;;;;;;;;4971436;28;20432;-47
2023/10/07 04:19:30;;;;;;;242.33;64.60;;;;;;;;;;4976216;28;20428;-47
2023/10/07 04:21:56;;;;;;;240.97;63.97;;;;;;;;;;4976097;28;20447;-47
2023/10/07 04:24:31;;;;;;;245.07;66.37;;;;;;;;;;4975666;28;20413;-47
2023/10/07 04:27:03;;;;;;;241.43;65.43;;;;;;;;;;4975565;28;20863;-47
2023/10/07 04:29:30;;;;;;;241.80;64.90;;;;;;;;;;4982665;28;20428;-47
2023/10/07 04:31:58;;;;;;;243.60;65.10;;;;;;;;;;4975923;28;20416;-47
2023/10/07 04:34:33;;;;;;;243.17;66.70;;;;;;;;;;4978688;28;20951;-46
2023/10/07 04:39:38;;;;;;;244.63;66.97;;;;;;;;;;4975841;28;20440;-48
2023/10/07 04:42:05;;;;;;;242.07;65.30;;;;;;;;;;4984043;28;20801;-47
2023/10/07 04:52:39;;;;;;;239.63;62.77;;;;;;;;;;4973074;28;20403;-46
2023/10/07 04:55:11;;;;;;;240.57;63.70;;;;;;;;;;4977178;28;20405;-47
2023/10/07 05:00:17;;;;;;;242.33;65.27;;;;;;;;;;4974250;28;20439;-46
2023/10/07 05:02:43;;;;;;;243.37;66.57;;;;;;;;;;4978428;28;20790;-47
2023/10/07 05:05:13;;;;;;;244.00;66.17;;;;;;;;;;4979805;28;20416;-49
2023/10/07 05:07:43;;;;;;;241.03;66.07;;;;;;;;;;4981681;28;20460;-46
2023/10/07 05:10:09;;;;;;;241.43;62.93;;;;;;;;;;4982603;28;20809;-47
2023/10/07 05:12:35;;;;;;;241.07;63.87;;;;;;;;;;4975255;28;20413;-46
2023/10/07 05:15:05;;;;;;;240.20;63.07;;;;;;;;;;4977988;28;20416;-47
2023/10/07 05:17:36;;;;;;;242.60;64.50;;;;;;;;;;4975100;28;20420;-48
2023/10/07 05:20:05;;;;;;;240.10;63.00;;;;;;;;;;4975117;28;20429;-48
2023/10/07 05:22:31;;;;;;;241.90;65.40;;;;;;;;;;4979114;28;20436;-47
2023/10/07 05:24:59;;;;;;;242.93;64.70;;;;;;;;;;4974529;28;20910;-47
2023/10/07 05:27:25;;;;;;;239.77;62.60;;;;;;;;;;4975006;28;20479;-46
2023/10/07 05:29:52;;;;;;;240.63;65.10;;;;;;;;;;4974768;28;20515;-47
2023/10/07 05:32:18;;;;;;;240.63;64.00;;;;;;;;;;4976995;28;20985;-47
2023/10/07 05:34:47;;;;;;;241.37;64.50;;;;;;;;;;4979274;28;20791;-47
2023/10/07 05:37:14;;;;;;;243.27;67.07;;;;;;;;;;4974858;28;20420;-47
2023/10/07 05:39:44;;;;;;;242.03;66.30;;;;;;;;;;4974657;28;20460;-47
2023/10/07 05:42:11;;;;;;;242.00;65.17;;;;;;;;;;4974623;28;20476;-47
2023/10/07 05:44:38;;;;;;;243.40;66.40;;;;;;;;;;4974404;28;20406;-47
2023/10/07 05:47:05;;;;;;;242.13;64.57;;;;;;;;;;4974786;28;20480;-47
2023/10/07 05:49:31;;;;;;;244.47;67.53;;;;;;;;;;4974661;28;20471;-46
2023/10/07 05:51:58;;;;;;;243.83;66.43;;;;;;;;;;4974535;28;20449;-47
2023/10/07 05:54:24;;;;;;;240.97;64.30;;;;;;;;;;4974500;28;20409;-48
2023/10/07 05:56:50;;;;;;;241.57;63.67;;;;;;;;;;4974425;28;20420;-47
2023/10/07 05:59:16;;;;;;;241.33;63.07;;;;;;;;;;4974325;28;20663;-47
2023/10/07 06:01:42;;;;;;;242.10;64.60;;;;;;;;;;4974388;28;20432;-47
2023/10/07 06:04:08;;;;;;;242.20;64.90;;;;;;;;;;4974123;28;20418;-48
2023/10/07 06:06:35;;;;;;;241.43;63.50;;;;;;;;;;4974430;28;20480;-47
2023/10/07 06:09:03;;;;;;;242.53;65.10;;;;;;;;;;4974020;28;20461;-47
2023/10/07 06:11:32;;;;;;;241.50;64.13;;;;;;;;;;4974037;28;20424;-47
2023/10/07 06:13:59;;;;;;;244.37;67.50;;;;;;;;;;4973951;28;20418;-47
2023/10/07 06:16:25;;;;;;;240.70;63.53;;;;;;;;;;4974138;28;20417;-46
2023/10/07 06:18:51;;;;;;;241.43;65.53;;;;;;;;;;4973975;28;20449;-46
2023/10/07 06:21:27;;;;;;;241.70;66.00;;;;;;;;;;4973341;28;20428;-47
2023/10/07 06:23:53;;;;;;;241.57;65.27;;;;;;;;;;4973828;28;20421;-48
2023/10/07 06:26:19;;;;;;;241.37;64.33;;;;;;;;;;4974205;28;20496;-46
2023/10/07 06:28:48;;;;;;;243.50;66.13;;;;;;;;;;4973791;28;20474;-47
2023/10/07 06:31:14;;;;;;;241.33;64.23;;;;;;;;;;4973695;28;20413;-46
2023/10/07 06:33:59;;;;;;;242.53;65.30;;;;;;;;;;4973663;28;20775;-47
2023/10/07 06:36:25;;;;;;;241.77;63.97;;;;;;;;;;4966978;28;20428;-46
2023/10/07 06:38:58;;;;;;;241.63;65.27;;;;;;;;;;4973609;28;21031;-47
2023/10/07 06:41:24;;;;;;;240.17;63.53;;;;;;;;;;4966445;28;20414;-46
2023/10/07 06:43:50;;;;;;;239.90;63.90;;;;;;;;;;4973482;28;20468;-46
2023/10/07 06:46:20;;;;;;;240.87;65.10;;;;;;;;;;4969270;28;20948;-47
2023/10/07 06:48:49;;;;;;;241.03;63.83;;;;;;;;;;4973564;28;20803;-47
2023/10/07 06:51:16;;;;;;;249.73;69.17;;;;;;;;;;4973199;28;20775;-47
2023/10/07 06:53:45;;;;;;;256.43;73.37;;;;;;;;;;4972293;28;20402;-47
2023/10/07 06:56:21;;;;;;;252.43;67.87;;;;;;;;;;4971395;28;20409;-47
2023/10/07 06:58:53;;;;;;;252.07;69.03;;;;;;;;;;4971441;28;20515;-47
2023/10/07 07:01:22;;;;;;;253.47;72.63;;;;;;;;;;4964503;28;20408;-46
2023/10/07 07:03:48;;;;;;;248.87;68.60;;;;;;;;;;4972435;28;20417;-46
2023/10/07 07:06:17;;;;;;;249.13;70.57;;;;;;;;;;4971836;28;20836;-46
2023/10/07 07:08:44;;;;;;;246.63;67.67;;;;;;;;;;4973082;28;20453;-46
2023/10/07 07:11:11;;;;;;;249.73;71.07;;;;;;;;;;4973216;28;20912;-47
2023/10/07 07:13:40;;;;;;;247.97;70.53;;;;;;;;;;4972843;28;20926;-46
2023/10/07 07:16:06;;;;;;;251.57;72.40;;;;;;;;;;4972982;28;20472;-47
2023/10/07 07:18:39;;;;;;;249.47;70.90;;;;;;;;;;4973025;28;20853;-47
2023/10/07 07:21:31;;;;;;;246.07;66.57;;;;;;;;;;4972960;28;20443;-47
2023/10/07 07:23:57;;;;;;;250.23;71.03;;;;;;;;;;4972456;28;20417;-46
2023/10/07 07:26:23;;;;;;;247.30;68.13;;;;;;;;;;4975065;28;20418;-47
2023/10/07 07:28:57;;;;;;;247.37;68.57;;;;;;;;;;4976668;28;20434;-46
2023/10/07 07:31:33;;;;;;;254.10;73.63;;;;;;;;;;4964840;28;20408;-48
2023/10/07 07:34:07;;;;;;;247.47;68.60;;;;;;;;;;4974988;28;20795;-46
2023/10/07 07:36:42;;;;;;;247.87;70.57;;;;;;;;;;4972979;28;20445;-46
2023/10/07 07:39:17;;;;;;;248.30;68.80;;;;;;;;;;4977304;28;20475;-46
2023/10/07 07:41:55;;;;;;;249.80;69.97;;;;;;;;;;4979000;28;20904;-48
2023/10/07 07:44:32;;;;;;;249.37;70.03;;;;;;;;;;4972853;28;20476;-48
2023/10/07 07:46:59;;;;;;;246.23;66.30;;;;;;;;;;4974096;28;20528;-47
2023/10/07 07:49:27;;;;;;;248.40;69.73;;;;;;;;;;4975554;28;20773;-46
2023/10/07 07:51:54;;;;;;;248.03;69.07;;;;;;;;;;4977239;28;20476;-46
2023/10/07 07:54:19;;;;;;;250.23;71.03;;;;;;;;;;4966170;28;20413;-46
2023/10/07 07:56:48;;;;;;;248.20;68.50;;;;;;;;;;4977228;28;20419;-47
2023/10/07 07:59:14;;;;;;;249.83;69.57;;;;;;;;;;4980279;28;20441;-46
2023/10/07 08:01:51;;;;;;;249.37;69.13;;;;;;;;;;4973972;28;20420;-47
2023/10/07 08:04:18;;;;;;;248.67;69.00;;;;;;;;;;4975239;28;20432;-47
2023/10/07 08:06:47;;;;;;;252.07;71.97;;;;;;;;;;4967232;28;20459;-47
2023/10/07 08:09:13;;;;;;;253.47;74.47;;;;;;;;;;4971550;28;20452;-47
2023/10/07 08:11:40;;;;;;;252.43;75.03;;;;;;;;;;4972467;28;20909;-46
2023/10/07 08:14:09;;;;;;;247.30;69.17;;;;;;;;;;4972277;28;20417;-48
2023/10/07 08:16:51;;;;;;;247.67;68.70;;;;;;;;;;4980255;28;20421;-48
2023/10/07 08:19:20;;;;;;;253.10;75.83;;;;;;;;;;4972259;28;20947;-47
2023/10/07 08:21:51;;;;;;;250.47;72.53;;;;;;;;;;4972514;28;20413;-46
2023/10/07 08:24:17;;;;;;;249.67;72.43;;;;;;;;;;4972638;28;20750;-46
2023/10/07 08:26:48;;;;;;;248.53;70.40;;;;;;;;;;4972448;28;20464;-47
2023/10/07 08:29:31;;;;;;;250.17;73.93;;;;;;;;;;4972400;28;20443;-47
2023/10/07 08:31:57;;;;;;;252.17;76.53;;;;;;;;;;4974906;28;20424;-47
2023/10/07 08:34:32;;;;;;;249.43;71.73;;;;;;;;;;4970868;28;20466;-46
2023/10/07 08:37:01;;;;;;;247.50;71.40;;;;;;;;;;4976280;28;20445;-48
2023/10/07 08:39:28;;;;;;;255.77;80.87;;;;;;;;;;4976195;28;20425;-47
2023/10/07 08:41:58;;;;;;;251.90;78.00;;;;;;;;;;4976220;28;20417;-48
2023/10/07 08:44:31;;;;;;;249.43;73.37;;;;;;;;;;4974084;28;20895;-47
2023/10/07 08:47:03;;;;;;;250.27;74.20;;;;;;;;;;4978588;28;20532;-48
2023/10/07 08:49:32;;;;;;;248.53;72.10;;;;;;;;;;4979837;28;20567;-48
2023/10/07 08:51:59;;;;;;;253.27;78.07;;;;;;;;;;4981505;28;20415;-46
2023/10/07 08:54:26;;;;;;;248.97;73.33;;;;;;;;;;4974219;28;20427;-47
2023/10/07 08:56:54;;;;;;;250.97;76.70;;;;;;;;;;4984568;28;20496;-48
2023/10/07 08:59:24;;;;;;;251.17;75.77;;;;;;;;;;4988570;28;20442;-47
2023/10/07 09:02:03;;;;;;;248.93;73.93;;;;;;;;;;4979550;28;20405;-46
2023/10/07 09:04:33;;;;;;;247.63;73.57;;;;;;;;;;4992664;28;20416;-47
2023/10/07 09:06:59;;;;;;;249.63;74.23;;;;;;;;;;4975549;28;20506;-48
2023/10/07 09:09:38;;;;;;;250.00;74.97;;;;;;;;;;4981331;28;20456;-46
2023/10/07 09:12:18;;;;;;;248.57;72.27;;;;;;;;;;4993815;28;20915;-47
2023/10/07 09:14:51;;;;;;;247.93;72.37;;;;;;;;;;4977257;28;20568;-47
2023/10/07 09:17:20;;;;;;;247.70;73.90;;;;;;;;;;4990758;28;20428;-47
2023/10/07 09:19:49;;;;;;;250.13;76.23;;;;;;;;;;4994372;28;20434;-47
2023/10/07 09:22:21;;;;;;;246.87;71.83;;;;;;;;;;4984487;28;20417;-46
2023/10/07 09:24:47;;;;;;;248.10;72.30;;;;;;;;;;4974990;28;20428;-46
2023/10/07 09:27:13;;;;;;;248.37;73.37;;;;;;;;;;4975014;28;20460;-46
2023/10/07 09:29:39;;;;;;;249.47;74.10;;;;;;;;;;4977231;28;20419;-48
2023/10/07 09:32:16;;;;;;;255.17;80.63;;;;;;;;;;4994275;28;20904;-47
2023/10/07 09:34:42;;;;;;;248.63;74.50;;;;;;;;;;4955658;29;20498;-46
2023/10/07 09:37:20;;;;;;;253.07;80.57;;;;;;;;;;4980077;28;20416;-47
2023/10/07 09:39:53;;;;;;;252.53;84.33;;;;;;;;;;4975664;28;20440;-46
2023/10/07 09:42:26;;;;;;;256.40;93.30;;;;;;;;;;4971972;28;20402;-48
2023/10/07 09:44:55;;;;;;;259.63;96.80;;;;;;;;;;4978717;28;20442;-48
2023/10/07 09:47:21;;;;;;;259.70;99.67;;;;;;;;;;4972888;28;20979;-47
2023/10/07 09:49:47;;;;;;;260.80;103.50;;;;;;;;;;4981263;28;20432;-48
2023/10/07 09:52:17;;;;;;;259.70;106.37;;;;;;;;;;4976269;28;20470;-49
2023/10/07 09:54:47;;;;;;;260.47;110.13;;;;;;;;;;4974812;28;20937;-48
2023/10/07 09:57:30;;;;;;;259.03;110.30;;;;;;;;;;4974979;28;20417;-49
2023/10/07 10:00:37;;;;;;;258.60;111.17;;;;;;;;;;4971517;28;20463;-47
2023/10/07 10:03:20;;;;;;;262.33;115.77;;;;;;;;;;4972658;28;20928;-47
2023/10/07 10:06:07;;;;;;;258.50;116.00;;;;;;;;;;4978843;28;20413;-48
2023/10/07 10:08:35;;;;;;;257.10;114.17;;;;;;;;;;4974137;28;20471;-47
2023/10/07 10:11:09;;;;;;;259.00;119.67;;;;;;;;;;4971877;28;20412;-48
2023/10/07 10:16:01;;;;;;;263.10;125.57;;;;;;;;;;4974359;28;20425;-47
2023/10/07 10:18:40;;;;;;;260.30;121.47;;;;;;;;;;4974054;28;20491;-49
2023/10/07 10:21:11;;;;;;;264.30;124.30;;;;;;;;;;4974773;28;20463;-48
2023/10/07 10:23:39;;;;;;;262.67;127.97;;;;;;;;;;4957047;28;20471;-47
2023/10/07 10:26:15;;;;;;;264.60;131.77;;;;;;;;;;4977933;28;20657;-47
2023/10/07 10:28:43;;;;;;;263.37;129.60;;;;;;;;;;4973882;28;20471;-47
2023/10/07 10:31:17;;;;;;;263.93;130.30;;;;;;;;;;4974915;28;20920;-47
2023/10/07 10:33:43;;;;;;;264.27;132.43;;;;;;;;;;4978403;28;20472;-48
2023/10/07 10:36:09;;;;;;;259.97;128.57;;;;;;;;;;4974343;28;20416;-48
2023/10/07 10:38:40;;;;;;;261.03;129.00;;;;;;;;;;4973497;28;20444;-49
2023/10/07 10:41:08;;;;;;;262.50;129.53;;;;;;;;;;4972325;28;20954;-47
2023/10/07 10:43:34;;;;;;;261.80;130.00;;;;;;;;;;4984735;28;21024;-48
2023/10/07 10:46:05;;;;;;;262.33;132.50;;;;;;;;;;4985096;28;20444;-47
2023/10/07 10:48:31;;;;;;;266.13;134.70;;;;;;;;;;4979070;28;20473;-47
2023/10/07 10:50:57;;;;;;;264.87;134.07;;;;;;;;;;4990074;28;20833;-47
2023/10/07 10:53:23;;;;;;;279.33;152.63;;;;;;;;;;4973298;28;20492;-47
2023/10/07 10:55:50;;;;;;;262.40;132.20;;;;;;;;;;4992995;28;20420;-48
2023/10/07 10:58:16;;;;;;;263.20;133.17;;;;;;;;;;4976240;28;20429;-47
2023/10/07 11:00:49;;;;;;;260.47;129.37;;;;;;;;;;4986706;28;20426;-47
2023/10/07 11:03:21;;;;;;;262.90;131.47;;;;;;;;;;4980951;28;20547;-47
2023/10/07 11:06:00;;;;;;;260.13;131.17;;;;;;;;;;4982678;28;20408;-48
2023/10/07 11:08:26;;;;;;;260.03;129.90;;;;;;;;;;4984027;28;20836;-47
2023/10/07 11:10:57;;;;;;;260.03;128.60;;;;;;;;;;4978451;28;20470;-48
2023/10/07 11:13:24;;;;;;;265.23;133.90;;;;;;;;;;4989713;28;20445;-47
2023/10/07 11:16:09;;;;;;;259.30;126.53;;;;;;;;;;4973253;28;20436;-47
2023/10/07 11:18:37;;;;;;;262.23;131.70;;;;;;;;;;4973248;28;20452;-47
2023/10/07 11:21:05;;;;;;;258.80;127.87;;;;;;;;;;4953761;28;20424;-48
2023/10/07 11:23:32;;;;;;;263.10;132.50;;;;;;;;;;4987318;28;20478;-48
2023/10/07 11:25:58;;;;;;;261.00;133.43;;;;;;;;;;4978293;28;20783;-46
2023/10/07 11:28:26;;;;;;;261.50;133.63;;;;;;;;;;4983965;28;20873;-47
2023/10/07 11:30:52;;;;;;;260.10;131.10;;;;;;;;;;4984193;28;20491;-47
2023/10/07 11:33:19;;;;;;;265.90;135.03;;;;;;;;;;4972757;28;20509;-47
2023/10/07 11:35:57;;;;;;;262.33;127.77;;;;;;;;;;4973017;28;20449;-46
2023/10/07 11:38:25;;;;;;;260.60;121.80;;;;;;;;;;4973914;28;20429;-48
2023/10/07 11:40:51;;;;;;;260.30;122.07;;;;;;;;;;4992204;28;20815;-47
2023/10/07 11:43:17;;;;;;;261.33;121.67;;;;;;;;;;4974056;28;20457;-48
2023/10/07 11:45:44;;;;;;;256.07;118.03;;;;;;;;;;4972844;28;20425;-48
2023/10/07 11:48:11;;;;;;;261.07;123.93;;;;;;;;;;4984993;28;20464;-47
2023/10/07 11:50:37;;;;;;;257.60;122.93;;;;;;;;;;4982507;28;20496;-48
2023/10/07 11:53:03;;;;;;;261.43;126.63;;;;;;;;;;4972719;28;20417;-47
2023/10/07 11:55:32;;;;;;;255.30;116.43;;;;;;;;;;4972620;28;20417;-46
2023/10/07 11:58:02;;;;;;;258.00;122.27;;;;;;;;;;4973836;28;20881;-46
2023/10/07 12:00:37;;;;;;;256.50;117.97;;;;;;;;;;4992108;28;20445;-47
2023/10/07 12:03:06;;;;;;;261.37;122.27;;;;;;;;;;4972687;28;20420;-47
2023/10/07 12:05:33;;;;;;;256.87;117.70;;;;;;;;;;4989673;28;20417;-47
2023/10/07 12:08:01;;;;;;;258.53;121.47;;;;;;;;;;4977740;28;20507;-47
2023/10/07 12:10:30;;;;;;;260.50;120.70;;;;;;;;;;4972401;28;20432;-47
2023/10/07 12:12:58;;;;;;;258.50;118.57;;;;;;;;;;4981361;28;20431;-46
2023/10/07 12:15:25;;;;;;;257.90;119.73;;;;;;;;;;4981718;28;20413;-48
2023/10/07 12:17:51;;;;;;;257.47;117.57;;;;;;;;;;4971480;28;20417;-47
2023/10/07 12:20:19;;;;;;;258.67;118.57;;;;;;;;;;4976299;28;20432;-46
2023/10/07 12:22:46;;;;;;;258.43;120.50;;;;;;;;;;4995812;28;20407;-47
2023/10/07 12:25:16;;;;;;;259.90;123.77;;;;;;;;;;4978188;28;20455;-47
2023/10/07 12:27:47;;;;;;;257.23;117.20;;;;;;;;;;4991082;28;20501;-46
2023/10/07 12:30:14;;;;;;;256.50;117.73;;;;;;;;;;4983063;28;20432;-48
2023/10/07 12:32:40;;;;;;;259.57;124.97;;;;;;;;;;4976115;28;20412;-46
2023/10/07 12:35:09;;;;;;;254.80;115.07;;;;;;;;;;4982857;28;20470;-48
2023/10/07 12:37:38;;;;;;;258.10;119.57;;;;;;;;;;4991132;28;20471;-48
2023/10/07 12:40:05;;;;;;;271.03;130.27;;;;;;;;;;4974785;28;20804;-48
2023/10/07 12:42:32;;;;;;;260.57;125.47;;;;;;;;;;4975417;28;20916;-46
2023/10/07 12:45:01;;;;;;;257.30;122.13;;;;;;;;;;4977657;28;20420;-47
2023/10/07 12:47:29;;;;;;;258.30;123.90;;;;;;;;;;4975781;28;20464;-47
2023/10/07 12:49:55;;;;;;;258.67;122.50;;;;;;;;;;4975527;28;20517;-47
2023/10/07 12:52:23;;;;;;;257.80;123.60;;;;;;;;;;4982351;28;20963;-47
2023/10/07 12:54:50;;;;;;;256.00;119.80;;;;;;;;;;4975449;28;20424;-48
2023/10/07 12:57:16;;;;;;;258.10;120.43;;;;;;;;;;4975577;28;20413;-47
2023/10/07 12:59:42;;;;;;;262.23;129.23;;;;;;;;;;4977581;28;20436;-47
2023/10/07 13:02:17;;;;;;;258.20;126.67;;;;;;;;;;4975761;28;20459;-47
2023/10/07 13:04:47;;;;;;;259.53;122.27;;;;;;;;;;4956127;28;20552;-47
2023/10/07 13:07:14;;;;;;;257.97;125.40;;;;;;;;;;4990714;28;20463;-47
2023/10/07 13:09:40;;;;;;;259.30;127.20;;;;;;;;;;4993666;28;20452;-47
2023/10/07 13:12:15;;;;;;;259.10;127.83;;;;;;;;;;4983328;28;20413;-48
2023/10/07 13:14:41;;;;;;;255.33;122.53;;;;;;;;;;4985000;28;20407;-47
2023/10/07 13:17:10;;;;;;;259.00;128.27;;;;;;;;;;4987893;28;20444;-48
2023/10/07 13:19:39;;;;;;;259.73;126.67;;;;;;;;;;4979663;28;20449;-47
2023/10/07 13:22:06;;;;;;;263.90;136.50;;;;;;;;;;4992815;28;20790;-47
2023/10/07 13:24:32;;;;;;;259.30;128.23;;;;;;;;;;4975097;28;20409;-48
2023/10/07 13:26:58;;;;;;;259.27;129.90;;;;;;;;;;4994029;28;20459;-48
2023/10/07 13:29:24;;;;;;;260.70;129.03;;;;;;;;;;4978802;28;20941;-48
2023/10/07 13:31:53;;;;;;;257.33;128.10;;;;;;;;;;4987564;28;20900;-47
2023/10/07 13:34:20;;;;;;;257.87;123.90;;;;;;;;;;4983984;28;20451;-48
2023/10/07 13:36:48;;;;;;;257.70;125.67;;;;;;;;;;4974988;28;20409;-47
2023/10/07 13:39:17;;;;;;;261.83;130.20;;;;;;;;;;4974872;28;20521;-48
2023/10/07 13:41:44;;;;;;;261.80;131.53;;;;;;;;;;4976855;28;20489;-49
2023/10/07 13:44:12;;;;;;;258.33;126.43;;;;;;;;;;4994764;28;20785;-48
2023/10/07 13:46:38;;;;;;;263.30;132.60;;;;;;;;;;4975012;28;20840;-48
2023/10/07 13:49:08;;;;;;;260.63;130.87;;;;;;;;;;4990669;28;20907;-49
2023/10/07 13:51:37;;;;;;;260.93;128.93;;;;;;;;;;4980487;28;20440;-49
2023/10/07 13:54:22;;;;;;;259.97;126.83;;;;;;;;;;4974489;28;20952;-47
2023/10/07 13:56:53;;;;;;;258.40;123.30;;;;;;;;;;4985550;28;20806;-47
2023/10/07 13:59:19;;;;;;;260.07;126.83;;;;;;;;;;4985524;28;21016;-48
2023/10/07 14:01:46;;;;;;;259.07;123.77;;;;;;;;;;4974519;28;20503;-48
2023/10/07 14:04:15;;;;;;;261.23;128.07;;;;;;;;;;4976800;28;20409;-48
2023/10/07 14:06:41;;;;;;;258.17;123.50;;;;;;;;;;4994165;28;20892;-47
2023/10/07 14:09:15;;;;;;;259.83;125.77;;;;;;;;;;4965716;28;20448;-47
2023/10/07 14:11:42;;;;;;;259.30;126.00;;;;;;;;;;4991806;28;20969;-47
2023/10/07 14:14:08;;;;;;;257.60;126.77;;;;;;;;;;4978776;28;20459;-48
2023/10/07 14:16:34;;;;;;;258.73;126.37;;;;;;;;;;4986183;28;20412;-47
2023/10/07 14:19:00;;;;;;;257.37;123.83;;;;;;;;;;4984453;28;20429;-47
2023/10/07 14:21:26;;;;;;;260.53;128.87;;;;;;;;;;4974033;28;20548;-48
2023/10/07 14:23:52;;;;;;;261.27;128.37;;;;;;;;;;4977056;28;20474;-47
2023/10/07 14:26:19;;;;;;;263.27;125.20;;;;;;;;;;4993261;28;20404;-48
2023/10/07 14:28:45;;;;;;;259.70;119.97;;;;;;;;;;4974035;28;20471;-48
2023/10/07 14:31:12;;;;;;;262.07;123.67;;;;;;;;;;4990736;28;20416;-47
2023/10/07 14:33:38;;;;;;;259.83;119.03;;;;;;;;;;4979376;28;20949;-47
2023/10/07 14:36:09;;;;;;;258.83;117.00;;;;;;;;;;4984907;28;20412;-47
2023/10/07 14:38:36;;;;;;;262.47;123.57;;;;;;;;;;4984344;28;20443;-47
2023/10/07 14:41:02;;;;;;;256.47;114.67;;;;;;;;;;4978902;28;20419;-47
2023/10/07 14:43:29;;;;;;;265.30;119.57;;;;;;;;;;4990011;28;20496;-47
2023/10/07 14:45:56;;;;;;;259.63;110.43;;;;;;;;;;4973685;28;20524;-48
2023/10/07 14:48:22;;;;;;;257.50;106.90;;;;;;;;;;4954548;29;20553;-47